首页
METAR-TAF:

METAR-TAF

机场 :

朱麗安娜公主國際機場

荷屬聖馬丁, 荷属安的列斯

纬度: 18-03N, 经度: 063-07W, 海拔: 4米

当前天气观测

该预报发布于30分钟前的19:00 UTC
风速9节,风向
温度 29°C
湿度 66%
气压 1014 hPa
能见度10公里或以上
少量云层高于2000英尺

METAR: TNCM 231900Z 08009KT 9999 FEW020 29/22 Q1014 NOSIG RMK A2996

时间: 15:30 (19:30 UTC)

预报

该预报发布于1小时和50分钟前的17:40 UTC
预报有效从23日的 18点(UTC)到 24日的 18点(UTC)
风速12节,风向东转东南
能見度: 10公里
散云层高于2000英尺
附近有阵雨
短暂存在
从 23日的 20点(UTC)到 23日的 23点(UTC)
风速12节,风向多变
能見度: 8.0公里
多云层高于2000英尺
阵雨
从 23日的 2330点(UTC)
风速8节,风向
能見度: 10公里
少量云层高于3000英尺
散云层高于6000英尺
几率 30%
从 24日的 04点(UTC)到 24日的 08点(UTC)
多云层高于1900英尺
小阵雨
从 24日的 1400点(UTC)
风速12节,风向东转东南
能見度: 10公里
散云层高于2400英尺
散云层高于5000英尺

TAF: TNCM 231740Z 2318/2418 12012KT P6SM VCSH SCT020 TEMPO 2320/2323 VRB12KT 5SM SHRA BKN020 FM232330 09008KT P6SM FEW030 SCT060 PROB30 2404/2408 -SHRA BKN019 FM241400 11012KT P6SM SCT024 SCT050

超过4000个机场的气象观测和天气预报(METAR&TAF报告)。

可查询的气象台以黄色和红色小点在地图上表示。

将鼠标移到小点上方,可查看气象台名称。

然后点击查看天气观测和预报。

如需切换地图:点击带黑十字的绿色按钮放大地图;点击带横线的绿色按钮缩小地图;或者点击绿色箭头查看邻近地区的地图。


METAR-TAF: